createdAt,value
2017-04-21T00:00:34.902Z,102194.67
2017-04-21T00:01:48.020Z,102200.20
2017-04-21T00:02:59.234Z,102200.70
2017-04-21T00:04:11.792Z,102194.96
2017-04-21T00:05:17.236Z,102199.13
2017-04-21T00:06:24.736Z,102195.53
2017-04-21T00:07:30.595Z,102201.55
2017-04-21T00:08:37.775Z,102203.06
2017-04-21T00:09:47.079Z,102193.09
2017-04-21T00:10:58.367Z,102188.23
2017-04-21T00:12:07.030Z,102199.64
2017-04-21T00:13:17.703Z,102194.77
2017-04-21T00:14:34.108Z,102191.61
2017-04-21T00:15:45.551Z,102191.25
2017-04-21T00:17:01.195Z,102188.16
2017-04-21T00:18:12.483Z,102186.00
2017-04-21T00:19:21.947Z,102180.62
2017-04-21T00:20:36.147Z,102184.14
2017-04-21T00:21:52.131Z,102172.45
2017-04-21T00:23:09.962Z,102175.61
2017-04-21T00:24:20.099Z,102175.24
2017-04-21T00:25:27.272Z,102175.74
2017-04-21T00:26:43.949Z,102178.47
2017-04-21T00:27:49.487Z,102176.61
2017-04-21T00:29:03.893Z,102173.95
2017-04-21T00:30:14.860Z,102174.88
2017-04-21T00:31:30.563Z,102173.95
2017-04-21T00:32:39.972Z,102170.80
2017-04-21T00:33:53.963Z,102168.07
2017-04-21T00:35:08.731Z,102166.27
2017-04-21T00:36:19.984Z,102164.41
2017-04-21T00:37:31.110Z,102161.75
2017-04-21T00:38:41.068Z,102163.62
2017-04-21T00:39:51.591Z,102161.75
2017-04-21T00:41:04.093Z,102164.48
2017-04-21T00:42:14.666Z,102162.19
2017-04-21T00:43:24.015Z,102155.80
2017-04-21T00:44:31.603Z,102155.37
2017-04-21T00:45:39.686Z,102152.14
2017-04-21T00:46:47.797Z,102152.58
2017-04-21T00:48:07.456Z,102148.48
2017-04-21T00:49:18.808Z,102153.94
2017-04-21T00:50:32.747Z,102151.22
2017-04-21T00:51:45.103Z,102144.47
2017-04-21T00:52:50.500Z,102150.42
2017-04-21T00:54:10.649Z,102147.63
2017-04-21T00:55:17.068Z,102151.78
2017-04-21T00:56:25.315Z,102142.31
2017-04-21T00:57:35.334Z,102147.70
2017-04-21T00:58:40.523Z,102136.44
2017-04-21T01:01:15.876Z,102147.41
2017-04-21T01:02:29.137Z,102141.88
2017-04-21T01:03:40.480Z,102138.87
2017-04-21T01:04:55.115Z,102130.63
2017-04-21T01:06:04.528Z,102138.87
2017-04-21T01:07:13.272Z,102133.09
2017-04-21T01:08:20.995Z,102127.14
2017-04-21T01:09:36.311Z,102133.09
2017-04-21T01:10:51.148Z,102126.71
2017-04-21T01:12:02.265Z,102128.14
2017-04-21T01:13:11.223Z,102132.66
2017-04-21T01:14:19.360Z,102128.64
2017-04-21T01:15:29.992Z,102128.64
2017-04-21T01:16:35.653Z,102127.72
2017-04-21T01:17:45.719Z,102133.23
2017-04-21T01:18:53.502Z,102130.51
2017-04-21T01:19:58.084Z,102134.09
2017-04-21T01:21:06.794Z,102130.01
2017-04-21T01:22:19.477Z,102137.75
2017-04-21T01:23:26.336Z,102133.73
2017-04-21T01:24:36.779Z,102135.67
2017-04-21T01:25:46.278Z,102135.67
2017-04-21T01:27:00.387Z,102125.27
2017-04-21T01:28:09.891Z,102136.67
2017-04-21T01:29:18.447Z,102129.93
2017-04-21T01:30:25.848Z,102133.08
2017-04-21T01:31:31.733Z,102125.91
2017-04-21T01:32:39.563Z,102130.43
2017-04-21T01:34:58.402Z,102126.91
2017-04-21T01:36:07.560Z,102130.57
2017-04-21T01:37:17.239Z,102130.72
2017-04-21T01:38:48.898Z,102134.80
2017-04-21T01:40:04.493Z,102131.72
2017-04-21T01:41:17.179Z,102130.35
2017-04-21T01:42:33.119Z,102127.30
2017-04-21T01:43:40.123Z,102127.30
2017-04-21T01:44:49.563Z,102130.85
2017-04-21T01:46:08.158Z,102127.30
2017-04-21T01:47:22.613Z,102121.75
2017-04-21T01:48:35.952Z,102129.06
2017-04-21T01:49:44.360Z,102130.59
2017-04-21T01:50:55.273Z,102122.85
2017-04-21T01:52:14.578Z,102131.03
2017-04-21T01:53:22.056Z,102137.48
2017-04-21T01:54:30.197Z,102130.23
2017-04-21T01:55:40.118Z,102137.48
2017-04-21T01:56:50.647Z,102132.53
2017-04-21T01:58:00.580Z,102133.82
2017-04-21T01:59:10.183Z,102137.48
2017-04-21T02:00:19.518Z,102139.77
2017-04-21T02:02:39.366Z,102137.98
2017-04-21T02:03:45.651Z,102133.03
2017-04-21T02:04:54.214Z,102142.13
2017-04-21T02:06:06.731Z,102139.41
2017-04-21T02:07:11.744Z,102132.67
2017-04-21T02:08:15.156Z,102136.26
2017-04-21T02:09:27.955Z,102136.69
2017-04-21T02:10:35.272Z,102139.91
2017-04-21T02:11:38.215Z,102133.60
2017-04-21T02:12:46.480Z,102135.39
2017-04-21T02:13:51.487Z,102134.10
2017-04-21T02:14:56.463Z,102134.10
2017-04-21T02:16:06.816Z,102133.24
2017-04-21T02:17:11.735Z,102129.22
2017-04-21T02:18:14.959Z,102130.16
2017-04-21T02:19:21.060Z,102127.86
2017-04-21T02:20:26.939Z,102124.70
2017-04-21T02:21:32.895Z,102119.76
2017-04-21T02:22:38.298Z,102116.10
2017-04-21T02:23:43.960Z,102116.53
2017-04-21T02:24:49.997Z,102115.09
2017-04-21T02:26:02.149Z,102116.53
2017-04-21T02:27:17.132Z,102117.03
2017-04-21T02:28:20.204Z,102120.69
2017-04-21T02:29:26.508Z,102117.89
2017-04-21T02:30:28.799Z,102120.26
2017-04-21T02:31:34.467Z,102115.67
2017-04-21T02:32:41.492Z,102115.67
2017-04-21T02:33:48.165Z,102119.76
2017-04-21T02:34:53.784Z,102116.60
2017-04-21T02:35:58.215Z,102115.67
2017-04-21T02:37:04.935Z,102119.19
2017-04-21T02:38:10.061Z,102120.41
2017-04-21T02:39:12.804Z,102120.20
2017-04-21T02:40:15.994Z,102122.78
2017-04-21T02:41:18.539Z,102118.37
2017-04-21T02:42:22.014Z,102122.25
2017-04-21T02:43:31.957Z,102120.68
2017-04-21T02:44:37.906Z,102120.04
2017-04-21T02:45:52.283Z,102124.42
2017-04-21T02:46:57.592Z,102114.63
2017-04-21T02:48:12.333Z,102111.69
2017-04-21T02:50:30.175Z,102115.50
2017-04-21T02:51:39.904Z,102112.20
2017-04-21T02:52:48.361Z,102122.45
2017-04-21T02:53:56.346Z,102116.40
2017-04-21T02:55:11.258Z,102112.31
2017-04-21T02:56:23.565Z,102116.40
2017-04-21T02:57:32.946Z,102120.84
2017-04-21T02:58:43.121Z,102124.00
2017-04-21T02:59:58.573Z,102112.09
2017-04-21T03:01:09.879Z,102115.69
2017-04-21T03:02:16.690Z,102114.32
2017-04-21T03:03:25.073Z,102113.39
2017-04-21T03:05:52.270Z,102118.34
2017-04-21T03:07:00.304Z,102114.82
2017-04-21T03:08:06.699Z,102111.73
2017-04-21T03:09:16.607Z,102110.80
2017-04-21T03:11:43.183Z,102113.96
2017-04-21T03:12:56.631Z,102116.33
2017-04-21T03:14:04.657Z,102113.28
2017-04-21T03:15:17.811Z,102110.55
2017-04-21T03:16:22.047Z,102106.46
2017-04-21T03:17:36.875Z,102106.53
2017-04-21T03:20:09.999Z,102103.88
2017-04-21T03:21:19.048Z,102104.02
2017-04-21T03:22:29.115Z,102098.64
2017-04-21T03:23:41.452Z,102098.86
2017-04-21T03:24:54.941Z,102099.43
2017-04-21T03:26:01.385Z,102100.00
2017-04-21T03:27:11.876Z,102096.05
2017-04-21T03:28:24.431Z,102102.19
2017-04-21T03:29:30.087Z,102100.60
2017-04-21T03:30:43.825Z,102104.91
2017-04-21T03:31:58.992Z,102095.72
2017-04-21T03:33:04.663Z,102096.97
2017-04-21T03:34:13.471Z,102099.05
2017-04-21T03:36:53.927Z,102094.91
2017-04-21T03:38:03.526Z,102097.98
2017-04-21T03:39:16.301Z,102100.19
2017-04-21T03:40:24.418Z,102095.59
2017-04-21T03:41:30.720Z,102096.38
2017-04-21T03:42:43.495Z,102099.45
2017-04-21T03:43:54.252Z,102094.52
2017-04-21T03:45:05.527Z,102098.52
2017-04-21T03:46:15.437Z,102093.95
2017-04-21T03:47:23.551Z,102095.23
2017-04-21T03:48:34.071Z,102094.21
2017-04-21T03:49:42.542Z,102099.61
2017-04-21T03:50:53.760Z,102099.52
2017-04-21T03:52:03.289Z,102097.57
2017-04-21T03:53:11.511Z,102098.88
2017-04-21T03:54:26.164Z,102100.22
2017-04-21T03:55:41.144Z,102102.78
2017-04-21T03:56:46.832Z,102101.93
2017-04-21T03:57:54.155Z,102099.98
2017-04-21T04:01:29.502Z,102099.53
2017-04-21T04:02:35.647Z,102101.23
2017-04-21T04:03:43.060Z,102104.15
2017-04-21T04:04:54.683Z,102104.02
2017-04-21T04:06:01.403Z,102103.80
2017-04-21T04:07:12.223Z,102095.53
2017-04-21T04:08:23.048Z,102100.48
2017-04-21T04:09:32.459Z,102099.45
2017-04-21T04:10:49.320Z,102094.28
2017-04-21T04:13:19.612Z,102102.21
2017-04-21T04:14:29.787Z,102097.11
2017-04-21T04:17:01.615Z,102109.91
2017-04-21T04:18:10.687Z,102107.95
2017-04-21T04:19:23.256Z,102107.22
2017-04-21T04:21:59.644Z,102098.33
2017-04-21T04:23:13.814Z,102095.44
2017-04-21T04:25:41.023Z,102098.72
2017-04-21T04:26:46.670Z,102106.70
2017-04-21T04:30:30.907Z,102105.92
2017-04-21T04:31:40.244Z,102099.36
2017-04-21T04:32:48.395Z,102107.84
2017-04-21T04:33:56.511Z,102107.97
2017-04-21T04:35:09.011Z,102107.23
2017-04-21T04:36:21.463Z,102106.50
2017-04-21T04:37:23.524Z,102103.58
2017-04-21T04:38:24.936Z,102108.71
2017-04-21T04:39:30.048Z,102111.00
2017-04-21T04:40:32.127Z,102102.55
2017-04-21T04:41:37.627Z,102110.82
2017-04-21T04:42:42.928Z,102106.38
2017-04-21T04:43:45.905Z,102105.09
2017-04-21T04:44:54.873Z,102108.23
2017-04-21T04:46:03.233Z,102109.45
2017-04-21T04:47:30.419Z,102113.72
2017-04-21T04:48:31.562Z,102114.34
2017-04-21T04:49:32.438Z,102113.55
2017-04-21T04:50:33.484Z,102114.10
2017-04-21T04:51:34.287Z,102116.02
2017-04-21T04:52:35.506Z,102113.30
2017-04-21T04:53:36.680Z,102112.94
2017-04-21T04:54:37.522Z,102116.52
2017-04-21T04:55:38.554Z,102115.22
2017-04-21T04:56:40.482Z,102119.79
2017-04-21T04:57:41.930Z,102119.89
2017-04-21T04:58:43.286Z,102119.45
2017-04-21T04:59:47.424Z,102115.02
2017-04-21T05:00:53.151Z,102118.22
2017-04-21T05:01:53.698Z,102121.31
2017-04-21T05:02:58.138Z,102118.22
2017-04-21T05:03:58.990Z,102122.73
2017-04-21T05:05:01.284Z,102116.44
2017-04-21T05:06:04.579Z,102124.95
2017-04-21T05:07:07.916Z,102123.59
2017-04-21T05:08:09.739Z,102119.52
2017-04-21T05:09:11.226Z,102122.23
2017-04-21T05:10:11.688Z,102124.95
2017-04-21T05:11:13.351Z,102120.81
2017-04-21T05:12:15.115Z,102121.64
2017-04-21T05:13:16.495Z,102121.58
2017-04-21T05:14:17.496Z,102129.23
2017-04-21T05:15:24.231Z,102130.03
2017-04-21T05:16:27.360Z,102132.19
2017-04-21T05:17:29.136Z,102131.20
2017-04-21T05:18:29.651Z,102130.20
2017-04-21T05:19:34.534Z,102136.01
2017-04-21T05:20:36.057Z,102130.88
2017-04-21T05:21:36.943Z,102127.66
2017-04-21T05:22:38.543Z,102127.11
2017-04-21T05:23:40.792Z,102122.44
2017-04-21T05:24:41.088Z,102129.03
2017-04-21T05:25:41.492Z,102131.19
2017-04-21T05:26:42.898Z,102129.28
2017-04-21T05:27:45.422Z,102133.72
2017-04-21T05:28:50.859Z,102131.30
2017-04-21T05:29:52.674Z,102133.83
2017-04-21T05:30:56.276Z,102128.77
2017-04-21T05:32:01.424Z,102135.33
2017-04-21T05:33:03.198Z,102130.27
2017-04-21T05:34:05.755Z,102134.58
2017-04-21T05:35:07.207Z,102136.23
2017-04-21T05:36:11.830Z,102137.90
2017-04-21T05:37:14.627Z,102139.49
2017-04-21T05:38:15.847Z,102141.13
2017-04-21T05:39:18.964Z,102138.70
2017-04-21T05:40:23.643Z,102139.38
2017-04-21T05:41:24.354Z,102135.11
2017-04-21T05:42:26.609Z,102141.34
2017-04-21T05:43:27.760Z,102143.33
2017-04-21T05:44:29.080Z,102142.27
2017-04-21T05:45:33.001Z,102132.13
2017-04-21T05:46:33.650Z,102140.09
2017-04-21T05:47:34.735Z,102146.69
2017-04-21T05:48:35.659Z,102133.73
2017-04-21T05:49:36.914Z,102132.67
2017-04-21T05:50:38.746Z,102137.84
2017-04-21T05:51:41.122Z,102137.09
2017-04-21T05:52:43.193Z,102139.45
2017-04-21T05:53:44.304Z,102142.47
2017-04-21T05:54:46.811Z,102141.77
2017-04-21T05:55:48.273Z,102136.63
2017-04-21T05:56:50.318Z,102144.16
2017-04-21T05:57:52.612Z,102146.65
2017-04-21T05:58:54.066Z,102140.58
2017-04-21T06:00:01.074Z,102147.68
2017-04-21T06:01:03.654Z,102147.98
2017-04-21T06:02:04.645Z,102149.64
2017-04-21T06:03:07.068Z,102144.56
2017-04-21T06:04:09.028Z,102146.55
2017-04-21T06:05:10.252Z,102146.28
2017-04-21T06:06:11.212Z,102143.44
2017-04-21T06:07:12.098Z,102144.52
2017-04-21T06:08:12.620Z,102143.47
2017-04-21T06:09:12.814Z,102144.52
2017-04-21T06:10:12.974Z,102146.11
2017-04-21T06:11:13.107Z,102140.91
2017-04-21T06:12:13.206Z,102138.41
2017-04-21T06:13:14.109Z,102140.86
2017-04-21T06:14:14.235Z,102145.21
2017-04-21T06:15:15.101Z,102139.00
2017-04-21T06:16:15.582Z,102137.51
2017-04-21T06:17:25.471Z,102140.32
2017-04-21T06:18:33.304Z,102135.07
2017-04-21T06:19:37.442Z,102135.73
2017-04-21T06:20:37.786Z,102133.67
2017-04-21T06:21:40.744Z,102128.02
2017-04-21T06:22:41.626Z,102130.44
2017-04-21T06:23:42.701Z,102141.48
2017-04-21T06:24:44.895Z,102131.32
2017-04-21T06:25:45.603Z,102135.13
2017-04-21T06:26:45.790Z,102131.24
2017-04-21T06:27:45.903Z,102131.90
2017-04-21T06:28:46.023Z,102131.55
2017-04-21T06:29:46.182Z,102130.28
2017-04-21T06:30:47.102Z,102131.77
2017-04-21T06:31:47.226Z,102128.77
2017-04-21T06:32:48.090Z,102125.63
2017-04-21T06:33:48.246Z,102132.98
2017-04-21T06:34:48.459Z,102128.63
2017-04-21T06:35:48.586Z,102130.50
2017-04-21T06:36:49.454Z,102127.00
2017-04-21T06:37:49.562Z,102132.53
2017-04-21T06:38:49.657Z,102131.31
2017-04-21T06:39:49.785Z,102131.51
2017-04-21T06:40:49.885Z,102133.38
2017-04-21T06:41:50.031Z,102131.81
2017-04-21T06:42:50.154Z,102129.06
2017-04-21T06:43:50.249Z,102125.63
2017-04-21T06:44:50.381Z,102128.00
2017-04-21T06:45:50.495Z,102124.56
2017-04-21T06:46:50.602Z,102123.73
2017-04-21T06:47:50.710Z,102129.27
2017-04-21T06:48:50.838Z,102122.59
2017-04-21T06:49:51.006Z,102119.55
2017-04-21T06:50:51.131Z,102121.56
2017-04-21T06:51:51.254Z,102125.23
2017-04-21T06:52:52.423Z,102119.92
2017-04-21T06:53:52.526Z,102122.76
2017-04-21T06:54:52.676Z,102116.52
2017-04-21T06:55:52.878Z,102123.05
2017-04-21T06:56:53.733Z,102120.79
2017-04-21T06:57:53.842Z,102121.86
2017-04-21T06:58:54.881Z,102126.09
2017-04-21T06:59:55.006Z,102126.13
2017-04-21T07:00:55.130Z,102122.61
2017-04-21T07:01:55.770Z,102125.91
2017-04-21T07:02:58.943Z,102130.14
2017-04-21T07:03:59.816Z,102126.59
2017-04-21T07:05:02.842Z,102126.66
2017-04-21T07:06:03.775Z,102129.95
2017-04-21T07:07:05.287Z,102123.67
2017-04-21T07:08:06.198Z,102129.19
2017-04-21T07:09:07.154Z,102118.84
2017-04-21T07:10:07.283Z,102115.20
2017-04-21T07:11:07.382Z,102113.48
2017-04-21T07:12:07.530Z,102116.59
2017-04-21T07:13:07.659Z,102116.72
2017-04-21T07:14:07.774Z,102117.64
2017-04-21T07:15:07.902Z,102121.02
2017-04-21T07:16:08.022Z,102119.17
2017-04-21T07:17:08.866Z,102121.02
2017-04-21T07:18:08.996Z,102117.53
2017-04-21T07:19:09.114Z,102122.11
2017-04-21T07:20:09.251Z,102117.72
2017-04-21T07:21:09.373Z,102119.65
2017-04-21T07:22:10.256Z,102111.91
2017-04-21T07:23:10.364Z,102113.40
2017-04-21T07:24:10.473Z,102113.88
2017-04-21T07:25:10.623Z,102110.31
2017-04-21T07:26:10.751Z,102114.97
2017-04-21T07:27:10.902Z,102109.05
2017-04-21T07:28:11.071Z,102110.59
2017-04-21T07:29:11.196Z,102108.34
2017-04-21T07:30:11.331Z,102118.09
2017-04-21T07:31:11.450Z,102108.55
2017-04-21T07:32:11.549Z,102102.62
2017-04-21T07:33:11.667Z,102111.30
2017-04-21T07:34:11.783Z,102110.38
2017-04-21T07:35:11.957Z,102109.56
2017-04-21T07:36:12.072Z,102109.50
2017-04-21T07:37:12.502Z,102114.16
2017-04-21T07:38:13.284Z,102109.67
2017-04-21T07:39:14.159Z,102114.14
2017-04-21T07:40:14.289Z,102114.26
2017-04-21T07:41:14.430Z,102116.17
2017-04-21T07:42:15.285Z,102118.88
2017-04-21T07:43:17.356Z,102110.36
2017-04-21T07:44:17.476Z,102106.30
2017-04-21T07:45:17.607Z,102112.63
2017-04-21T07:46:17.735Z,102108.22
2017-04-21T07:47:17.862Z,102109.98
2017-04-21T07:48:17.962Z,102118.19
2017-04-21T07:49:18.852Z,102112.25
2017-04-21T07:50:18.974Z,102108.17
2017-04-21T07:51:19.980Z,102113.57
2017-04-21T07:52:20.082Z,102116.77
2017-04-21T07:53:20.199Z,102112.67
2017-04-21T07:54:20.323Z,102114.85
2017-04-21T07:55:20.454Z,102117.43
2017-04-21T07:56:20.554Z,102102.25
2017-04-21T07:57:20.731Z,102105.80
2017-04-21T07:58:20.831Z,102107.42
2017-04-21T07:59:20.934Z,102105.81
2017-04-21T08:01:21.254Z,102102.45
2017-04-21T08:02:21.372Z,102105.41
2017-04-21T08:03:21.478Z,102099.67
2017-04-21T08:04:21.590Z,102101.92
2017-04-21T08:05:21.740Z,102098.58
2017-04-21T08:06:21.854Z,102108.97
2017-04-21T08:07:21.961Z,102102.53
2017-04-21T08:08:22.050Z,102102.55
2017-04-21T08:09:22.158Z,102105.31
2017-04-21T08:10:22.293Z,102103.77
2017-04-21T08:11:22.385Z,102103.86
2017-04-21T08:12:22.500Z,102107.48
2017-04-21T08:13:22.610Z,102100.69
2017-04-21T08:14:22.732Z,102101.56
2017-04-21T08:15:22.865Z,102099.86
2017-04-21T08:16:22.962Z,102100.27
2017-04-21T08:17:23.098Z,102104.91
2017-04-21T08:18:23.225Z,102101.75
2017-04-21T08:19:23.338Z,102098.05
2017-04-21T08:20:23.474Z,102107.73
2017-04-21T08:21:23.594Z,102109.04
2017-04-21T08:22:23.699Z,102097.99
2017-04-21T08:23:23.826Z,102102.98
2017-04-21T08:24:23.934Z,102101.06
2017-04-21T08:25:24.092Z,102106.05
2017-04-21T08:26:24.194Z,102099.11
2017-04-21T08:27:24.306Z,102099.52
2017-04-21T08:28:24.414Z,102094.45
2017-04-21T08:29:24.528Z,102095.63
2017-04-21T08:30:24.712Z,102093.83
2017-04-21T08:31:24.930Z,102093.84
2017-04-21T08:32:25.778Z,102090.12
2017-04-21T08:33:25.893Z,102090.55
2017-04-21T08:34:26.036Z,102090.20
2017-04-21T08:35:26.161Z,102096.95
2017-04-21T08:36:26.282Z,102098.32
2017-04-21T08:37:26.395Z,102093.14
2017-04-21T08:38:26.694Z,102094.94
2017-04-21T08:39:26.918Z,102089.36
2017-04-21T08:40:27.045Z,102090.43
2017-04-21T08:41:27.927Z,102089.30
2017-04-21T08:42:28.054Z,102090.30
2017-04-21T08:43:28.161Z,102084.84
2017-04-21T08:44:28.291Z,102085.67
2017-04-21T08:45:28.412Z,102085.96
2017-04-21T08:46:29.970Z,102082.80
2017-04-21T08:47:30.094Z,102084.28
2017-04-21T08:48:30.562Z,102085.32
2017-04-21T08:49:30.705Z,102083.38
2017-04-21T08:50:30.818Z,102083.53
2017-04-21T08:51:30.972Z,102078.78
2017-04-21T08:52:31.082Z,102081.88
2017-04-21T08:53:31.962Z,102084.59
2017-04-21T08:54:32.078Z,102077.09
2017-04-21T08:55:32.186Z,102078.20
2017-04-21T08:56:32.314Z,102081.20
2017-04-21T08:57:32.478Z,102077.90
2017-04-21T08:58:32.598Z,102072.22
2017-04-21T08:59:32.710Z,102075.68
2017-04-21T09:00:33.591Z,102070.27
2017-04-21T09:01:33.747Z,102072.47
2017-04-21T09:02:34.606Z,102075.52
2017-04-21T09:03:34.734Z,102076.83
2017-04-21T09:04:35.599Z,102075.81
2017-04-21T09:05:36.450Z,102078.56
2017-04-21T09:06:36.582Z,102079.52
2017-04-21T09:07:36.690Z,102075.72
2017-04-21T09:08:36.802Z,102075.17
2017-04-21T09:09:36.910Z,102074.32
2017-04-21T09:10:37.018Z,102076.39
2017-04-21T09:11:37.171Z,102073.80
2017-04-21T09:12:37.286Z,102068.14
2017-04-21T09:13:37.397Z,102068.70
2017-04-21T09:14:37.519Z,102064.90
2017-04-21T09:15:38.386Z,102069.40
2017-04-21T09:16:38.520Z,102069.72
2017-04-21T09:17:38.650Z,102072.17
2017-04-21T09:18:39.019Z,102068.44
2017-04-21T09:19:39.126Z,102066.38
2017-04-21T09:20:39.234Z,102070.97
2017-04-21T09:21:40.307Z,102069.56
2017-04-21T09:22:40.426Z,102062.81
2017-04-21T09:23:40.532Z,102059.89
2017-04-21T09:24:40.655Z,102062.52
2017-04-21T09:25:40.766Z,102064.48
2017-04-21T09:26:40.879Z,102055.36
2017-04-21T09:27:40.990Z,102053.59
2017-04-21T09:28:41.840Z,102051.95
2017-04-21T09:29:41.962Z,102054.22
2017-04-21T09:31:02.849Z,102055.02
2017-04-21T09:32:04.326Z,102056.16
2017-04-21T09:32:42.469Z,102055.00
2017-04-21T09:34:33.324Z,102048.08
2017-04-21T09:34:43.499Z,102052.60
2017-04-21T09:35:43.639Z,102053.73
2017-04-21T09:36:43.770Z,102049.60
2017-04-21T09:37:43.899Z,102046.24
2017-04-21T09:38:44.038Z,102039.02
2017-04-21T09:39:44.151Z,102045.09
2017-04-21T09:40:44.259Z,102051.05
2017-04-21T09:41:45.148Z,102043.65
2017-04-21T09:42:45.268Z,102040.42
2017-04-21T09:43:45.399Z,102043.48
2017-04-21T09:44:45.546Z,102040.22
2017-04-21T09:45:45.659Z,102046.41
2017-04-21T09:46:45.785Z,102040.08
2017-04-21T09:47:45.911Z,102045.93
2017-04-21T09:48:46.032Z,102046.84
2017-04-21T09:49:46.139Z,102043.37
2017-04-21T09:50:46.259Z,102041.62
2017-04-21T09:53:46.667Z,102038.03
2017-04-21T09:56:04.955Z,102040.81
2017-04-21T09:56:08.059Z,102041.36
2017-04-21T09:57:06.052Z,102035.37
2017-04-21T09:58:48.164Z,102021.72
2017-04-21T10:00:04.092Z,102020.92
2017-04-21T10:02:26.247Z,102023.85
2017-04-21T10:02:26.334Z,102021.84
2017-04-21T10:02:28.138Z,102033.86
2017-04-21T10:02:32.020Z,102035.45
2017-04-21T10:04:39.837Z,102023.48
2017-04-21T10:06:12.463Z,102018.14
2017-04-21T10:06:18.227Z,102026.77
2017-04-21T10:07:42.357Z,102025.27
2017-04-21T10:07:56.695Z,102021.40
2017-04-21T10:08:09.167Z,102019.47
2017-04-21T10:08:11.831Z,102022.45
2017-04-21T10:08:50.627Z,102012.74
2017-04-21T10:09:50.834Z,102010.08
2017-04-21T10:10:51.058Z,102017.57
2017-04-21T10:11:51.179Z,102007.10
2017-04-21T10:12:51.323Z,102017.26
2017-04-21T10:13:53.398Z,102010.34
2017-04-21T10:14:55.442Z,102010.83
2017-04-21T10:15:56.377Z,102009.27
2017-04-21T10:16:56.510Z,102003.99
2017-04-21T10:17:56.634Z,102012.79
2017-04-21T10:18:56.741Z,102008.53
2017-04-21T10:19:56.849Z,102007.38
2017-04-21T10:20:57.098Z,102012.93
2017-04-21T10:21:57.233Z,102008.39
2017-04-21T10:22:57.399Z,102010.13
2017-04-21T10:23:57.615Z,102014.09
2017-04-21T10:24:57.737Z,101999.91
2017-04-21T10:25:57.846Z,102004.33
2017-04-21T10:26:58.709Z,102002.23
2017-04-21T10:27:59.586Z,101993.48
2017-04-21T10:28:59.696Z,101985.95
2017-04-21T10:29:59.847Z,101992.05
2017-04-21T10:30:59.962Z,101988.73
2017-04-21T10:32:00.818Z,101989.58
2017-04-21T10:33:00.950Z,101987.62
2017-04-21T10:34:01.054Z,101986.12
2017-04-21T10:35:01.165Z,101985.24
2017-04-21T10:36:01.297Z,101988.11
2017-04-21T10:37:01.425Z,101987.23
2017-04-21T10:38:01.548Z,101986.61
2017-04-21T10:39:02.397Z,101981.58
2017-04-21T10:40:02.510Z,101980.84
2017-04-21T10:41:02.656Z,101991.22
2017-04-21T10:42:02.798Z,101993.27
2017-04-21T10:43:02.910Z,101989.27
2017-04-21T10:44:03.017Z,101984.16
2017-04-21T10:45:03.139Z,101984.92
2017-04-21T10:46:04.018Z,101979.05
2017-04-21T10:47:04.210Z,101975.22
2017-04-21T10:48:04.330Z,101978.42
2017-04-21T10:49:04.430Z,101976.50
2017-04-21T10:50:04.555Z,101977.12
2017-04-21T10:51:04.682Z,101971.34
2017-04-21T10:52:05.550Z,101967.69
2017-04-21T10:53:06.413Z,101971.69
2017-04-21T10:54:06.522Z,101967.80
2017-04-21T10:55:06.626Z,101967.01
2017-04-21T10:56:06.760Z,101966.66
2017-04-21T10:57:06.898Z,101962.69
2017-04-21T10:58:07.047Z,101959.48
2017-04-21T10:59:07.166Z,101961.27
2017-04-21T11:00:07.369Z,101957.73
2017-04-21T11:01:07.414Z,101953.56
2017-04-21T11:02:07.591Z,101945.78
2017-04-21T11:03:07.725Z,101955.05
2017-04-21T11:04:07.840Z,101948.38
2017-04-21T11:05:07.946Z,101947.89
2017-04-21T11:06:08.059Z,101946.47
2017-04-21T11:07:08.930Z,101945.08
2017-04-21T11:08:09.791Z,101943.77
2017-04-21T11:09:09.899Z,101951.48
2017-04-21T11:10:10.006Z,101949.13
2017-04-21T11:11:10.099Z,101947.31
2017-04-21T11:12:10.247Z,101949.91
2017-04-21T11:13:10.357Z,101932.80
2017-04-21T11:14:10.486Z,101931.52
2017-04-21T11:15:10.614Z,101931.86
2017-04-21T11:16:11.464Z,101932.13
2017-04-21T11:17:11.601Z,101927.33
2017-04-21T11:18:11.729Z,101926.67
2017-04-21T11:19:11.862Z,101925.88
2017-04-21T11:20:11.977Z,101924.02
2017-04-21T11:21:12.081Z,101925.80
2017-04-21T11:22:12.224Z,101930.59
2017-04-21T11:23:12.684Z,101935.08
2017-04-21T11:24:12.802Z,101937.06
2017-04-21T11:25:12.914Z,101933.49
2017-04-21T11:26:13.022Z,101935.54
2017-04-21T11:27:13.149Z,101931.48
2017-04-21T11:28:13.370Z,101926.03
2017-04-21T11:29:14.242Z,101921.86
2017-04-21T11:30:14.368Z,101925.50
2017-04-21T11:31:14.578Z,101919.39
2017-04-21T11:32:15.514Z,101923.88
2017-04-21T11:33:15.633Z,101920.78
2017-04-21T11:34:15.774Z,101915.56
2017-04-21T11:35:16.640Z,101918.47
2017-04-21T11:36:16.770Z,101917.25
2017-04-21T11:37:16.898Z,101911.07
2017-04-21T11:38:17.017Z,101918.14
2017-04-21T11:39:17.178Z,101912.15
2017-04-21T11:40:17.313Z,101906.59
2017-04-21T11:41:17.414Z,101901.45
2017-04-21T11:42:17.614Z,101894.92
2017-04-21T11:43:17.718Z,101901.42
2017-04-21T11:44:17.829Z,101903.94
2017-04-21T11:45:17.951Z,101902.20
2017-04-21T11:46:18.068Z,101893.20
2017-04-21T11:47:18.213Z,101898.00
2017-04-21T11:48:18.334Z,101897.65
2017-04-21T11:49:18.472Z,101897.16
2017-04-21T11:50:18.609Z,101904.92
2017-04-21T11:51:18.734Z,101907.13
2017-04-21T11:52:18.881Z,101911.80
2017-04-21T11:53:19.006Z,101901.92
2017-04-21T11:54:19.113Z,101905.39
2017-04-21T11:55:19.214Z,101901.92
2017-04-21T11:56:19.338Z,101901.80
2017-04-21T11:57:19.478Z,101904.78
2017-04-21T11:58:19.583Z,101903.34
2017-04-21T11:59:19.699Z,101905.90
2017-04-21T12:00:19.823Z,101903.00
2017-04-21T12:01:20.074Z,101898.76
2017-04-21T12:02:20.208Z,101902.70
2017-04-21T12:03:20.398Z,101901.50
2017-04-21T12:04:20.506Z,101899.10
2017-04-21T12:05:20.626Z,101896.24
2017-04-21T12:06:20.767Z,101898.29
2017-04-21T12:07:21.714Z,101896.90
2017-04-21T12:08:21.831Z,101891.76
2017-04-21T12:09:21.977Z,101892.19
2017-04-21T12:10:22.086Z,101894.35
2017-04-21T12:11:22.186Z,101892.42
2017-04-21T12:12:22.374Z,101893.27
2017-04-21T12:13:21.714Z,101881.91
2017-04-21T12:14:21.857Z,101889.36
2017-04-21T12:15:21.965Z,101879.93
2017-04-21T12:16:22.089Z,101886.77
2017-04-21T12:17:22.262Z,101883.88
2017-04-21T12:18:22.384Z,101879.04
2017-04-21T12:19:22.507Z,101885.15
2017-04-21T12:20:22.666Z,101879.81
2017-04-21T12:21:22.809Z,101879.08
2017-04-21T12:22:22.934Z,101873.28
2017-04-21T12:23:23.056Z,101869.84
2017-04-21T12:24:23.183Z,101870.58
2017-04-21T12:25:24.034Z,101878.12
2017-04-21T12:26:24.134Z,101875.52
2017-04-21T12:27:23.482Z,101864.39
2017-04-21T12:28:23.606Z,101869.38